createdAt,value
2022-10-09T00:01:22.320Z,100.00
2022-10-09T00:03:51.938Z,100.00
2022-10-09T00:06:21.831Z,100.00
2022-10-09T00:08:49.991Z,100.00
2022-10-09T00:11:22.111Z,100.00
2022-10-09T00:13:50.742Z,100.00
2022-10-09T00:16:20.069Z,100.00
2022-10-09T00:18:48.751Z,100.00
2022-10-09T00:21:21.215Z,100.00
2022-10-09T00:23:50.257Z,100.00
2022-10-09T00:26:20.172Z,100.00
2022-10-09T00:28:48.983Z,100.00
2022-10-09T00:31:17.358Z,100.00
2022-10-09T00:33:46.095Z,100.00
2022-10-09T00:36:15.309Z,100.00
2022-10-09T00:38:43.417Z,100.00
2022-10-09T00:41:15.344Z,100.00
2022-10-09T00:43:47.510Z,100.00
2022-10-09T00:46:27.305Z,100.00
2022-10-09T00:49:05.090Z,100.00
2022-10-09T00:51:35.200Z,100.00
2022-10-09T00:54:06.080Z,100.00
2022-10-09T00:56:35.520Z,100.00
2022-10-09T00:59:06.254Z,100.00
2022-10-09T01:01:34.259Z,100.00
2022-10-09T01:04:02.226Z,100.00
2022-10-09T01:06:45.124Z,100.00
2022-10-09T01:09:15.874Z,100.00
2022-10-09T01:11:51.386Z,100.00
2022-10-09T01:14:27.175Z,100.00
2022-10-09T01:17:00.521Z,100.00
2022-10-09T01:19:45.769Z,100.00
2022-10-09T01:22:27.997Z,100.00
2022-10-09T01:25:02.753Z,100.00
2022-10-09T01:27:34.081Z,100.00
2022-10-09T01:30:04.709Z,100.00
2022-10-09T01:32:34.910Z,100.00
2022-10-09T01:35:03.506Z,100.00
2022-10-09T01:37:32.839Z,100.00
2022-10-09T01:40:02.093Z,100.00
2022-10-09T01:42:32.623Z,100.00
2022-10-09T01:45:00.589Z,100.00
2022-10-09T01:47:29.000Z,100.00
2022-10-09T01:50:03.025Z,100.00
2022-10-09T01:52:42.758Z,100.00
2022-10-09T01:55:33.484Z,100.00
2022-10-09T01:58:10.181Z,100.00
2022-10-09T02:00:43.325Z,100.00
2022-10-09T02:03:14.549Z,100.00
2022-10-09T02:05:45.215Z,100.00
2022-10-09T02:08:18.458Z,100.00
2022-10-09T02:10:47.875Z,100.00
2022-10-09T02:13:17.352Z,100.00
2022-10-09T02:15:49.592Z,100.00
2022-10-09T02:18:26.912Z,100.00
2022-10-09T02:21:01.068Z,100.00
2022-10-09T02:23:30.056Z,100.00
2022-10-09T02:25:58.668Z,100.00
2022-10-09T02:28:28.129Z,100.00
2022-10-09T02:31:03.259Z,100.00
2022-10-09T02:33:35.007Z,100.00
2022-10-09T02:36:03.617Z,100.00
2022-10-09T02:38:31.630Z,100.00
2022-10-09T02:41:00.580Z,100.00
2022-10-09T02:43:30.573Z,100.00
2022-10-09T02:45:58.525Z,100.00
2022-10-09T02:48:26.640Z,100.00
2022-10-09T02:50:54.539Z,100.00
2022-10-09T02:53:22.417Z,100.00
2022-10-09T02:55:50.288Z,100.00
2022-10-09T02:58:18.291Z,100.00
2022-10-09T03:00:50.842Z,100.00
2022-10-09T03:03:19.229Z,100.00
2022-10-09T03:05:47.714Z,100.00
2022-10-09T03:08:16.152Z,100.00
2022-10-09T03:10:43.994Z,100.00
2022-10-09T03:13:11.856Z,100.00
2022-10-09T03:15:40.024Z,100.00
2022-10-09T03:18:09.404Z,100.00
2022-10-09T03:20:37.273Z,100.00
2022-10-09T03:23:05.381Z,100.00
2022-10-09T03:25:33.278Z,100.00
2022-10-09T03:28:01.172Z,100.00
2022-10-09T03:30:29.149Z,100.00
2022-10-09T03:32:57.251Z,100.00
2022-10-09T03:35:26.612Z,100.00
2022-10-09T03:37:54.545Z,100.00
2022-10-09T03:40:22.434Z,100.00
2022-10-09T03:42:50.638Z,100.00
2022-10-09T03:45:18.896Z,100.00
2022-10-09T03:47:47.053Z,100.00
2022-10-09T03:50:14.967Z,100.00
2022-10-09T03:52:44.218Z,100.00
2022-10-09T03:55:12.100Z,100.00
2022-10-09T03:57:40.122Z,100.00
2022-10-09T04:00:09.772Z,100.00
2022-10-09T04:02:37.882Z,100.00
2022-10-09T04:05:06.828Z,100.00
2022-10-09T04:07:34.738Z,100.00
2022-10-09T04:10:04.984Z,100.00
2022-10-09T04:12:32.932Z,100.00
2022-10-09T04:15:00.850Z,100.00
2022-10-09T04:17:28.862Z,100.00
2022-10-09T04:19:56.748Z,100.00
2022-10-09T04:22:24.764Z,100.00
2022-10-09T04:24:52.648Z,100.00
2022-10-09T04:27:21.929Z,100.00
2022-10-09T04:29:49.847Z,100.00
2022-10-09T04:32:17.754Z,100.00
2022-10-09T04:34:45.637Z,100.00
2022-10-09T04:37:13.781Z,100.00
2022-10-09T04:39:41.717Z,100.00
2022-10-09T04:42:09.653Z,100.00
2022-10-09T04:44:39.010Z,100.00
2022-10-09T04:47:11.100Z,100.00
2022-10-09T04:49:39.838Z,100.00
2022-10-09T04:52:07.888Z,100.00
2022-10-09T04:54:35.754Z,100.00
2022-10-09T04:57:03.763Z,100.00
2022-10-09T04:59:31.825Z,100.00
2022-10-09T05:02:01.334Z,100.00
2022-10-09T05:04:29.365Z,100.00
2022-10-09T05:06:57.242Z,100.00
2022-10-09T05:09:25.137Z,100.00
2022-10-09T05:11:53.084Z,100.00
2022-10-09T05:14:20.997Z,100.00
2022-10-09T05:17:12.567Z,100.00
2022-10-09T05:19:41.572Z,100.00
2022-10-09T05:22:09.538Z,100.00
2022-10-09T05:24:37.418Z,100.00
2022-10-09T05:27:06.021Z,100.00
2022-10-09T05:29:34.166Z,100.00
2022-10-09T05:32:02.219Z,100.00
2022-10-09T05:34:30.271Z,100.00
2022-10-09T05:36:59.624Z,100.00
2022-10-09T05:39:27.555Z,100.00
2022-10-09T05:41:55.569Z,100.00
2022-10-09T05:44:23.677Z,100.00
2022-10-09T05:46:51.695Z,100.00
2022-10-09T05:49:19.558Z,100.00
2022-10-09T05:51:47.553Z,100.00
2022-10-09T05:54:19.386Z,100.00
2022-10-09T05:56:47.486Z,100.00
2022-10-09T05:59:19.506Z,100.00
2022-10-09T06:01:50.134Z,100.00
2022-10-09T06:04:20.288Z,100.00
2022-10-09T06:06:49.010Z,100.00
2022-10-09T06:09:19.890Z,100.00
2022-10-09T06:11:47.759Z,100.00
2022-10-09T06:14:15.737Z,100.00
2022-10-09T06:16:46.247Z,100.00
2022-10-09T06:19:15.847Z,100.00
2022-10-09T06:21:44.707Z,100.00
2022-10-09T06:24:24.301Z,100.00
2022-10-09T06:26:55.116Z,100.00
2022-10-09T06:29:23.262Z,100.00
2022-10-09T06:31:51.276Z,100.00
2022-10-09T06:34:19.299Z,100.00
2022-10-09T06:36:47.268Z,100.00
2022-10-09T06:39:15.148Z,100.00
2022-10-09T06:41:44.485Z,100.00
2022-10-09T06:44:16.549Z,100.00
2022-10-09T06:46:46.532Z,100.00
2022-10-09T06:49:14.472Z,100.00
2022-10-09T06:51:42.371Z,100.00
2022-10-09T06:54:13.119Z,100.00
2022-10-09T06:56:41.244Z,100.00
2022-10-09T06:59:11.844Z,100.00
2022-10-09T07:01:39.999Z,100.00
2022-10-09T07:04:11.037Z,100.00
2022-10-09T07:06:42.063Z,100.00
2022-10-09T07:09:12.090Z,100.00
2022-10-09T07:11:43.177Z,100.00
2022-10-09T07:14:15.843Z,100.00
2022-10-09T07:16:45.971Z,100.00
2022-10-09T07:19:15.814Z,100.00
2022-10-09T07:21:45.833Z,100.00
2022-10-09T07:24:14.262Z,100.00
2022-10-09T07:26:43.741Z,100.00
2022-10-09T07:29:15.726Z,100.00
2022-10-09T07:31:43.955Z,100.00
2022-10-09T07:34:11.892Z,100.00
2022-10-09T07:36:39.874Z,100.00
2022-10-09T07:39:07.912Z,100.00
2022-10-09T07:41:36.305Z,100.00
2022-10-09T07:44:04.573Z,100.00
2022-10-09T07:46:34.390Z,100.00
2022-10-09T07:49:02.599Z,100.00
2022-10-09T07:51:31.985Z,100.00
2022-10-09T07:54:02.076Z,100.00
2022-10-09T07:56:31.801Z,100.00
2022-10-09T07:59:01.767Z,100.00
2022-10-09T08:01:31.644Z,100.00
2022-10-09T08:04:02.044Z,100.00
2022-10-09T08:06:31.022Z,100.00
2022-10-09T08:09:01.790Z,100.00
2022-10-09T08:11:31.132Z,100.00
2022-10-09T08:13:59.631Z,100.00
2022-10-09T08:16:28.604Z,100.00
2022-10-09T08:18:58.627Z,100.00
2022-10-09T08:21:29.153Z,100.00
2022-10-09T08:23:59.022Z,100.00
2022-10-09T08:26:30.163Z,100.00
2022-10-09T08:29:00.921Z,100.00
2022-10-09T08:31:30.160Z,100.00
2022-10-09T08:33:59.524Z,100.00
2022-10-09T08:36:29.805Z,100.00
2022-10-09T08:38:57.815Z,100.00
2022-10-09T08:41:39.593Z,100.00
2022-10-09T08:44:15.786Z,100.00
2022-10-09T08:46:58.246Z,100.00
2022-10-09T08:49:31.218Z,100.00
2022-10-09T08:52:13.738Z,100.00
2022-10-09T08:54:41.843Z,100.00
2022-10-09T08:57:14.562Z,100.00
2022-10-09T08:59:44.005Z,100.00
2022-10-09T09:02:28.982Z,100.00
2022-10-09T09:05:10.126Z,100.00
2022-10-09T09:07:48.226Z,100.00
2022-10-09T09:10:21.313Z,100.00
2022-10-09T09:12:54.597Z,100.00
2022-10-09T09:15:36.252Z,100.00
2022-10-09T09:18:19.082Z,100.00
2022-10-09T09:20:53.634Z,100.00
2022-10-09T09:23:30.071Z,100.00
2022-10-09T09:25:59.644Z,100.00
2022-10-09T09:28:30.772Z,100.00
2022-10-09T09:31:04.243Z,100.00
2022-10-09T09:33:44.456Z,100.00
2022-10-09T09:36:22.712Z,100.00
2022-10-09T09:41:42.419Z,100.00
2022-10-09T09:44:12.140Z,100.00
2022-10-09T09:46:41.179Z,100.00
2022-10-09T09:49:17.881Z,100.00
2022-10-09T09:51:46.678Z,100.00
2022-10-09T09:54:22.575Z,100.00
2022-10-09T09:57:14.030Z,100.00
2022-10-09T09:59:43.097Z,100.00
2022-10-09T10:02:15.547Z,100.00
2022-10-09T10:04:56.590Z,100.00
2022-10-09T10:07:32.281Z,100.00
2022-10-09T10:10:06.362Z,100.00
2022-10-09T10:12:34.691Z,100.00
2022-10-09T10:15:03.014Z,98.58
2022-10-09T10:17:39.010Z,98.47
2022-10-09T10:20:07.821Z,98.83
2022-10-09T10:22:36.951Z,99.73
2022-10-09T10:25:09.689Z,94.64
2022-10-09T10:27:42.957Z,90.93
2022-10-09T10:30:15.270Z,89.96
2022-10-09T10:32:51.151Z,91.53
2022-10-09T10:35:24.935Z,90.47
2022-10-09T10:38:00.393Z,90.66
2022-10-09T10:40:34.044Z,83.99
2022-10-09T10:43:15.720Z,80.88
2022-10-09T10:45:54.014Z,83.15
2022-10-09T10:48:27.027Z,80.22
2022-10-09T10:51:03.942Z,73.77
2022-10-09T10:53:42.537Z,71.97
2022-10-09T10:56:20.823Z,75.11
2022-10-09T10:58:57.331Z,72.97
2022-10-09T11:01:38.290Z,75.40
2022-10-09T11:04:28.646Z,73.30
2022-10-09T11:07:07.538Z,71.82
2022-10-09T11:09:45.286Z,73.49
2022-10-09T11:12:43.285Z,67.42
2022-10-09T11:15:19.360Z,69.47
2022-10-09T11:17:56.583Z,66.25
2022-10-09T11:20:45.542Z,65.86
2022-10-09T11:23:24.175Z,65.75
2022-10-09T11:25:59.219Z,67.39
2022-10-09T11:28:34.289Z,64.76
2022-10-09T11:31:09.647Z,66.33
2022-10-09T11:33:43.829Z,65.28
2022-10-09T11:36:17.818Z,65.08
2022-10-09T11:38:50.134Z,64.68
2022-10-09T11:41:18.233Z,64.02
2022-10-09T11:44:01.715Z,62.09
2022-10-09T11:46:42.044Z,61.50
2022-10-09T11:49:20.981Z,64.41
2022-10-09T11:51:58.039Z,61.27
2022-10-09T11:54:27.526Z,60.49
2022-10-09T11:56:58.465Z,61.42
2022-10-09T11:59:31.493Z,58.76
2022-10-09T12:02:01.275Z,58.83
2022-10-09T12:04:53.430Z,57.73
2022-10-09T12:07:33.276Z,57.11
2022-10-09T12:10:06.277Z,57.24
2022-10-09T12:12:37.777Z,55.65
2022-10-09T12:15:26.469Z,54.63
2022-10-09T12:17:54.695Z,55.03
2022-10-09T12:20:26.298Z,55.47
2022-10-09T12:23:21.774Z,56.11
2022-10-09T12:25:46.938Z,54.58
2022-10-09T12:28:28.001Z,53.93
2022-10-09T12:30:58.915Z,52.90
2022-10-09T12:33:31.605Z,52.16
2022-10-09T12:36:04.272Z,53.13
2022-10-09T12:38:33.628Z,53.67
2022-10-09T12:41:04.329Z,53.67
2022-10-09T12:43:33.842Z,52.83
2022-10-09T12:46:03.501Z,51.81
2022-10-09T12:48:38.092Z,51.78
2022-10-09T12:51:16.515Z,51.29
2022-10-09T12:53:48.777Z,51.28
2022-10-09T12:56:23.957Z,50.52
2022-10-09T12:58:55.801Z,51.74
2022-10-09T13:01:26.476Z,50.97
2022-10-09T13:03:56.275Z,52.42
2022-10-09T13:06:27.356Z,52.48
2022-10-09T13:08:57.949Z,52.54
2022-10-09T13:11:33.293Z,52.16
2022-10-09T13:14:01.667Z,52.33
2022-10-09T13:16:41.126Z,53.04
2022-10-09T13:19:25.483Z,52.81
2022-10-09T13:22:22.030Z,52.89
2022-10-09T13:24:53.633Z,53.01
2022-10-09T13:27:23.061Z,54.21
2022-10-09T13:29:50.959Z,53.75
2022-10-09T13:32:20.918Z,53.30
2022-10-09T13:34:48.792Z,52.09
2022-10-09T13:37:20.184Z,51.45
2022-10-09T13:39:48.297Z,52.15
2022-10-09T13:42:17.712Z,53.82
2022-10-09T13:44:45.597Z,52.02
2022-10-09T13:47:13.509Z,52.55
2022-10-09T13:49:42.779Z,51.87
2022-10-09T13:52:11.123Z,50.97
2022-10-09T13:54:39.170Z,52.03
2022-10-09T13:57:07.123Z,52.84
2022-10-09T13:59:35.143Z,52.94
2022-10-09T14:02:03.504Z,53.12
2022-10-09T14:04:31.564Z,54.24
2022-10-09T14:07:00.836Z,56.49
2022-10-09T14:09:28.903Z,56.31
2022-10-09T14:11:58.007Z,57.41
2022-10-09T14:14:25.928Z,57.58
2022-10-09T14:16:53.948Z,58.19
2022-10-09T14:19:27.082Z,60.21
2022-10-09T14:21:55.154Z,61.35
2022-10-09T14:24:25.249Z,63.89
2022-10-09T14:26:53.443Z,65.16
2022-10-09T14:29:21.442Z,66.28
2022-10-09T14:31:51.842Z,67.50
2022-10-09T14:34:19.802Z,67.83
2022-10-09T14:36:47.945Z,68.62
2022-10-09T14:39:16.537Z,68.39
2022-10-09T14:41:45.936Z,68.18
2022-10-09T14:44:14.429Z,67.07
2022-10-09T14:46:42.357Z,67.77
2022-10-09T14:49:11.625Z,70.49
2022-10-09T14:51:41.308Z,71.90
2022-10-09T14:54:10.218Z,76.88
2022-10-09T14:56:38.237Z,82.41
2022-10-09T14:59:07.768Z,90.83
2022-10-09T15:01:36.492Z,97.79
2022-10-09T15:04:05.257Z,100.00
2022-10-09T15:06:34.009Z,100.00
2022-10-09T15:09:05.714Z,100.00
2022-10-09T15:11:35.275Z,100.00
2022-10-09T15:14:03.940Z,100.00
2022-10-09T15:16:33.656Z,100.00
2022-10-09T15:19:01.824Z,100.00
2022-10-09T15:21:31.986Z,100.00
2022-10-09T15:24:02.206Z,100.00
2022-10-09T15:26:32.872Z,100.00
2022-10-09T15:29:03.687Z,100.00
2022-10-09T15:31:34.466Z,100.00
2022-10-09T15:34:02.536Z,100.00
2022-10-09T15:36:32.562Z,100.00
2022-10-09T15:39:03.278Z,100.00
2022-10-09T15:41:33.133Z,100.00
2022-10-09T15:44:02.986Z,100.00
2022-10-09T15:46:31.448Z,100.00
2022-10-09T15:49:00.831Z,100.00
2022-10-09T15:51:33.238Z,100.00
2022-10-09T15:54:02.227Z,100.00
2022-10-09T15:56:35.968Z,100.00
2022-10-09T15:59:06.784Z,100.00
2022-10-09T16:01:38.319Z,100.00
2022-10-09T16:04:07.658Z,100.00
2022-10-09T16:06:35.552Z,100.00
2022-10-09T16:09:04.638Z,100.00
2022-10-09T16:11:32.641Z,100.00
2022-10-09T16:14:02.334Z,100.00
2022-10-09T16:16:36.065Z,100.00
2022-10-09T16:19:05.209Z,100.00
2022-10-09T16:21:34.533Z,100.00
2022-10-09T16:24:02.697Z,100.00
2022-10-09T16:26:31.043Z,100.00
2022-10-09T16:29:00.941Z,100.00
2022-10-09T16:31:31.400Z,100.00
2022-10-09T16:34:00.040Z,100.00
2022-10-09T16:36:28.779Z,100.00
2022-10-09T16:39:01.494Z,100.00
2022-10-09T16:41:29.981Z,100.00
2022-10-09T16:44:21.970Z,100.00
2022-10-09T16:46:49.952Z,100.00
2022-10-09T16:49:21.410Z,100.00
2022-10-09T16:51:52.367Z,100.00
2022-10-09T16:54:22.257Z,100.00
2022-10-09T16:56:50.435Z,100.00
2022-10-09T16:59:18.781Z,100.00
2022-10-09T17:01:47.765Z,100.00
2022-10-09T17:04:15.800Z,100.00
2022-10-09T17:06:46.862Z,100.00
2022-10-09T17:09:15.524Z,100.00
2022-10-09T17:11:45.980Z,100.00
2022-10-09T17:14:14.784Z,100.00
2022-10-09T17:16:44.250Z,100.00
2022-10-09T17:19:12.194Z,100.00
2022-10-09T17:21:40.163Z,100.00
2022-10-09T17:24:08.703Z,100.00
2022-10-09T17:26:37.017Z,100.00
2022-10-09T17:29:07.432Z,100.00
2022-10-09T17:31:35.920Z,100.00
2022-10-09T17:34:05.398Z,100.00
2022-10-09T17:36:36.348Z,100.00
2022-10-09T17:39:06.290Z,100.00
2022-10-09T17:41:34.283Z,100.00
2022-10-09T17:44:02.333Z,100.00
2022-10-09T17:46:32.447Z,100.00
2022-10-09T17:49:01.074Z,100.00
2022-10-09T17:51:31.220Z,100.00
2022-10-09T17:54:03.369Z,100.00
2022-10-09T17:56:34.074Z,100.00
2022-10-09T17:59:03.180Z,100.00
2022-10-09T18:01:32.827Z,100.00
2022-10-09T18:04:01.295Z,100.00
2022-10-09T18:06:32.730Z,100.00
2022-10-09T18:09:00.740Z,100.00
2022-10-09T18:11:30.185Z,100.00
2022-10-09T18:13:58.901Z,100.00
2022-10-09T18:16:35.766Z,100.00
2022-10-09T18:19:07.864Z,100.00
2022-10-09T18:21:36.569Z,100.00
2022-10-09T18:24:04.899Z,100.00
2022-10-09T18:26:32.806Z,100.00
2022-10-09T18:29:02.047Z,100.00
2022-10-09T18:31:31.152Z,100.00
2022-10-09T18:33:59.750Z,100.00
2022-10-09T18:36:33.523Z,100.00
2022-10-09T18:39:04.137Z,100.00
2022-10-09T18:41:32.632Z,100.00
2022-10-09T18:44:03.062Z,100.00
2022-10-09T18:46:37.174Z,100.00
2022-10-09T18:49:09.307Z,100.00
2022-10-09T18:51:40.737Z,100.00
2022-10-09T18:54:10.721Z,100.00
2022-10-09T18:56:41.720Z,100.00
2022-10-09T18:59:13.201Z,100.00
2022-10-09T19:01:41.547Z,100.00
2022-10-09T19:04:10.060Z,100.00
2022-10-09T19:06:39.715Z,100.00
2022-10-09T19:09:09.330Z,100.00
2022-10-09T19:11:37.272Z,100.00
2022-10-09T19:14:05.303Z,100.00
2022-10-09T19:16:36.045Z,100.00
2022-10-09T19:19:04.298Z,100.00
2022-10-09T19:21:32.648Z,100.00
2022-10-09T19:24:04.547Z,100.00
2022-10-09T19:26:33.171Z,100.00
2022-10-09T19:29:01.190Z,100.00
2022-10-09T19:31:29.560Z,100.00
2022-10-09T19:33:57.767Z,100.00
2022-10-09T19:36:26.714Z,100.00
2022-10-09T19:38:54.833Z,100.00
2022-10-09T19:41:24.090Z,100.00
2022-10-09T19:43:52.096Z,100.00
2022-10-09T19:46:22.678Z,100.00
2022-10-09T19:48:50.640Z,100.00
2022-10-09T19:51:20.327Z,100.00
2022-10-09T19:53:49.983Z,100.00
2022-10-09T19:56:20.548Z,100.00
2022-10-09T19:58:50.600Z,100.00
2022-10-09T20:01:21.072Z,100.00
2022-10-09T20:03:50.096Z,100.00
2022-10-09T20:06:17.977Z,100.00
2022-10-09T20:08:46.292Z,100.00
2022-10-09T20:11:14.211Z,100.00
2022-10-09T20:13:43.178Z,100.00
2022-10-09T20:16:15.041Z,100.00
2022-10-09T20:18:43.693Z,100.00
2022-10-09T20:21:13.331Z,100.00
2022-10-09T20:23:41.371Z,100.00
2022-10-09T20:26:12.199Z,100.00
2022-10-09T20:28:40.361Z,100.00
2022-10-09T20:31:11.369Z,100.00
2022-10-09T20:33:40.838Z,100.00
2022-10-09T20:36:09.681Z,100.00
2022-10-09T20:38:37.602Z,100.00
2022-10-09T20:41:07.720Z,100.00
2022-10-09T20:43:35.909Z,100.00
2022-10-09T20:46:07.205Z,100.00
2022-10-09T20:48:35.280Z,100.00
2022-10-09T20:51:05.003Z,100.00
2022-10-09T20:53:32.966Z,100.00
2022-10-09T20:56:01.478Z,100.00
2022-10-09T20:58:29.682Z,100.00
2022-10-09T21:00:57.720Z,100.00
2022-10-09T21:03:25.680Z,100.00
2022-10-09T21:05:54.070Z,100.00
2022-10-09T21:08:23.703Z,100.00
2022-10-09T21:10:51.743Z,100.00
2022-10-09T21:13:19.648Z,100.00
2022-10-09T21:15:49.977Z,100.00
2022-10-09T21:18:20.422Z,100.00
2022-10-09T21:20:49.425Z,100.00
2022-10-09T21:23:19.723Z,100.00
2022-10-09T21:25:50.624Z,100.00
2022-10-09T21:28:18.857Z,100.00
2022-10-09T21:30:46.848Z,100.00
2022-10-09T21:33:15.352Z,100.00
2022-10-09T21:35:44.939Z,100.00
2022-10-09T21:38:14.634Z,100.00
2022-10-09T21:40:42.672Z,100.00
2022-10-09T21:43:12.277Z,100.00
2022-10-09T21:45:41.313Z,100.00
2022-10-09T21:48:15.558Z,100.00
2022-10-09T21:50:43.963Z,100.00
2022-10-09T21:53:12.166Z,100.00
2022-10-09T21:55:40.731Z,100.00
2022-10-09T21:58:08.891Z,100.00
2022-10-09T22:00:57.680Z,100.00
2022-10-09T22:03:26.527Z,100.00
2022-10-09T22:05:55.060Z,100.00
2022-10-09T22:08:24.016Z,100.00
2022-10-09T22:10:52.151Z,100.00
2022-10-09T22:13:21.714Z,100.00
2022-10-09T22:15:51.322Z,100.00
2022-10-09T22:18:21.264Z,100.00
2022-10-09T22:20:50.902Z,100.00
2022-10-09T22:23:19.966Z,100.00
2022-10-09T22:25:57.111Z,100.00
2022-10-09T22:28:25.726Z,100.00
2022-10-09T22:31:02.994Z,100.00
2022-10-09T22:33:32.695Z,100.00
2022-10-09T22:36:05.787Z,100.00
2022-10-09T22:38:34.299Z,100.00
2022-10-09T22:41:10.250Z,100.00
2022-10-09T22:43:39.209Z,100.00
2022-10-09T22:46:09.376Z,100.00
2022-10-09T22:48:38.793Z,100.00
2022-10-09T22:51:08.787Z,100.00
2022-10-09T22:53:38.159Z,100.00
2022-10-09T22:56:07.188Z,100.00
2022-10-09T22:58:35.845Z,100.00
2022-10-09T23:01:06.289Z,100.00
2022-10-09T23:03:34.344Z,100.00
2022-10-09T23:06:12.134Z,100.00
2022-10-09T23:08:42.170Z,100.00
2022-10-09T23:11:10.486Z,100.00
2022-10-09T23:13:39.132Z,100.00
2022-10-09T23:16:10.009Z,100.00
2022-10-09T23:18:38.968Z,100.00
2022-10-09T23:21:08.717Z,100.00
2022-10-09T23:23:38.056Z,100.00
2022-10-09T23:26:06.707Z,100.00
2022-10-09T23:28:35.074Z,100.00
2022-10-09T23:31:03.805Z,100.00
2022-10-09T23:33:31.932Z,100.00
2022-10-09T23:36:00.204Z,100.00
2022-10-09T23:38:28.160Z,100.00
2022-10-09T23:40:58.395Z,100.00
2022-10-09T23:43:26.609Z,100.00
2022-10-09T23:45:56.961Z,100.00
2022-10-09T23:48:25.179Z,100.00
2022-10-09T23:50:53.835Z,100.00
2022-10-09T23:53:22.988Z,100.00
2022-10-09T23:55:51.033Z,100.00
2022-10-09T23:58:21.131Z,100.00
